createdAt,value
2022-12-18T00:00:04.132Z,-6.45
2022-12-18T00:01:04.103Z,-6.47
2022-12-18T00:02:04.237Z,-6.44
2022-12-18T00:03:04.216Z,-6.38
2022-12-18T00:04:04.262Z,-6.34
2022-12-18T00:05:04.086Z,-6.31
2022-12-18T00:06:04.072Z,-6.26
2022-12-18T00:07:04.033Z,-6.26
2022-12-18T00:08:04.038Z,-6.21
2022-12-18T00:09:04.046Z,-6.19
2022-12-18T00:10:04.022Z,-6.14
2022-12-18T00:11:10.583Z,-6.13
2022-12-18T00:13:08.230Z,-6.08
2022-12-18T00:14:04.014Z,-6.06
2022-12-18T00:15:03.998Z,-6.05
2022-12-18T00:16:04.012Z,-6.02
2022-12-18T00:17:04.003Z,-6.03
2022-12-18T00:18:03.957Z,-6.03
2022-12-18T00:19:03.917Z,-6.02
2022-12-18T00:20:03.908Z,-6.03
2022-12-18T00:21:03.910Z,-6.03
2022-12-18T00:22:03.906Z,-6.06
2022-12-18T00:23:03.872Z,-6.09
2022-12-18T00:24:03.880Z,-6.14
2022-12-18T00:25:03.874Z,-6.14
2022-12-18T00:26:03.864Z,-6.17
2022-12-18T00:27:03.842Z,-6.17
2022-12-18T00:28:03.822Z,-6.14
2022-12-18T00:29:03.811Z,-6.16
2022-12-18T00:30:03.833Z,-6.17
2022-12-18T00:31:10.424Z,-6.20
2022-12-18T00:32:03.890Z,-6.20
2022-12-18T00:33:03.798Z,-6.20
2022-12-18T00:34:03.774Z,-6.23
2022-12-18T00:35:03.763Z,-6.21
2022-12-18T00:36:03.750Z,-6.23
2022-12-18T00:37:03.739Z,-6.23
2022-12-18T00:38:03.736Z,-6.26
2022-12-18T00:39:03.706Z,-6.29
2022-12-18T00:40:03.723Z,-6.31
2022-12-18T00:41:03.700Z,-6.32
2022-12-18T00:42:03.720Z,-6.32
2022-12-18T00:43:03.655Z,-6.32
2022-12-18T00:44:03.656Z,-6.35
2022-12-18T00:45:07.637Z,-6.34
2022-12-18T00:46:03.710Z,-6.32
2022-12-18T00:47:03.620Z,-6.31
2022-12-18T00:48:03.686Z,-6.32
2022-12-18T00:49:03.621Z,-6.35
2022-12-18T00:50:03.613Z,-6.37
2022-12-18T00:51:10.135Z,-6.44
2022-12-18T00:52:03.615Z,-6.45
2022-12-18T00:53:03.580Z,-6.45
2022-12-18T00:54:03.582Z,-6.42
2022-12-18T00:55:06.408Z,-6.39
2022-12-18T00:56:03.564Z,-6.37
2022-12-18T00:57:03.510Z,-6.29
2022-12-18T00:58:03.527Z,-6.23
2022-12-18T00:59:03.499Z,-6.20
2022-12-18T01:00:03.512Z,-6.21
2022-12-18T01:01:03.492Z,-6.23
2022-12-18T01:02:03.561Z,-6.24
2022-12-18T01:03:03.489Z,-6.27
2022-12-18T01:04:03.471Z,-6.32
2022-12-18T01:05:03.590Z,-6.35
2022-12-18T01:06:03.445Z,-6.38
2022-12-18T01:07:03.421Z,-6.38
2022-12-18T01:08:03.402Z,-6.41
2022-12-18T01:09:03.396Z,-6.44
2022-12-18T01:10:03.409Z,-6.45
2022-12-18T01:11:09.995Z,-6.45
2022-12-18T01:12:03.402Z,-6.45
2022-12-18T01:13:03.343Z,-6.47
2022-12-18T01:14:03.361Z,-6.47
2022-12-18T01:15:03.321Z,-6.47
2022-12-18T01:16:03.434Z,-6.48
2022-12-18T01:17:03.314Z,-6.44
2022-12-18T01:18:03.324Z,-6.44
2022-12-18T01:19:03.353Z,-6.47
2022-12-18T01:20:03.286Z,-6.45
2022-12-18T01:21:03.257Z,-6.50
2022-12-18T01:22:03.279Z,-6.55
2022-12-18T01:23:03.240Z,-6.56
2022-12-18T01:24:03.242Z,-6.56
2022-12-18T01:25:03.237Z,-6.55
2022-12-18T01:26:03.214Z,-6.52
2022-12-18T01:27:03.194Z,-6.53
2022-12-18T01:28:03.212Z,-6.53
2022-12-18T01:29:03.198Z,-6.55
2022-12-18T01:30:03.212Z,-6.56
2022-12-18T01:31:03.185Z,-6.55
2022-12-18T01:32:03.229Z,-6.50
2022-12-18T01:33:03.142Z,-6.53
2022-12-18T01:34:03.126Z,-6.53
2022-12-18T01:35:03.120Z,-6.48
2022-12-18T01:36:03.109Z,-6.50
2022-12-18T01:37:03.111Z,-6.52
2022-12-18T01:38:03.095Z,-6.53
2022-12-18T01:39:03.100Z,-6.55
2022-12-18T01:40:03.083Z,-6.55
2022-12-18T01:41:03.066Z,-6.56
2022-12-18T01:42:03.045Z,-6.52
2022-12-18T01:43:03.035Z,-6.52
2022-12-18T01:44:03.020Z,-6.52
2022-12-18T01:45:03.034Z,-6.48
2022-12-18T01:46:03.006Z,-6.48
2022-12-18T01:47:03.013Z,-6.45
2022-12-18T01:48:02.995Z,-6.42
2022-12-18T01:49:03.002Z,-6.42
2022-12-18T01:50:03.055Z,-6.44
2022-12-18T01:51:02.962Z,-6.44
2022-12-18T01:52:02.958Z,-6.48
2022-12-18T01:53:02.938Z,-6.48
2022-12-18T01:54:02.965Z,-6.48
2022-12-18T01:55:02.926Z,-6.48
2022-12-18T01:56:02.889Z,-6.47
2022-12-18T01:57:02.909Z,-6.47
2022-12-18T01:58:02.920Z,-6.45
2022-12-18T01:59:02.872Z,-6.50
2022-12-18T02:00:02.856Z,-6.50
2022-12-18T02:01:02.911Z,-6.48
2022-12-18T02:02:03.028Z,-6.50
2022-12-18T02:03:02.935Z,-6.52
2022-12-18T02:04:02.866Z,-6.53
2022-12-18T02:05:02.831Z,-6.53
2022-12-18T02:06:02.788Z,-6.52
2022-12-18T02:07:02.801Z,-6.52
2022-12-18T02:08:02.785Z,-6.52
2022-12-18T02:09:03.329Z,-6.52
2022-12-18T02:10:02.805Z,-6.53
2022-12-18T02:11:02.765Z,-6.55
2022-12-18T02:12:02.732Z,-6.59
2022-12-18T02:13:02.730Z,-6.59
2022-12-18T02:14:02.731Z,-6.61
2022-12-18T02:15:02.719Z,-6.63
2022-12-18T02:16:02.712Z,-6.61
2022-12-18T02:17:02.713Z,-6.56
2022-12-18T02:18:02.670Z,-6.53
2022-12-18T02:19:02.678Z,-6.48
2022-12-18T02:20:02.677Z,-6.44
2022-12-18T02:21:02.692Z,-6.41
2022-12-18T02:22:02.650Z,-6.42
2022-12-18T02:23:02.641Z,-6.41
2022-12-18T02:24:02.622Z,-6.38
2022-12-18T02:25:02.593Z,-6.37
2022-12-18T02:26:02.615Z,-6.37
2022-12-18T02:27:02.583Z,-6.35
2022-12-18T02:28:02.604Z,-6.32
2022-12-18T02:29:02.616Z,-6.32
2022-12-18T02:30:02.539Z,-6.31
2022-12-18T02:31:09.178Z,-6.34
2022-12-18T02:32:02.564Z,-6.35
2022-12-18T02:33:02.536Z,-6.35
2022-12-18T02:34:02.502Z,-6.38
2022-12-18T02:35:02.524Z,-6.39
2022-12-18T02:36:02.486Z,-6.39
2022-12-18T02:37:02.509Z,-6.42
2022-12-18T02:38:02.459Z,-6.42
2022-12-18T02:39:02.476Z,-6.42
2022-12-18T02:40:02.436Z,-6.38
2022-12-18T02:41:02.459Z,-6.34
2022-12-18T02:42:02.436Z,-6.26
2022-12-18T02:43:02.413Z,-6.21
2022-12-18T02:44:02.393Z,-6.20
2022-12-18T02:45:02.421Z,-6.21
2022-12-18T02:46:02.538Z,-6.23
2022-12-18T02:47:02.396Z,-6.24
2022-12-18T02:48:02.386Z,-6.24
2022-12-18T02:49:02.421Z,-6.20
2022-12-18T02:50:02.363Z,-6.19
2022-12-18T02:51:08.924Z,-6.16
2022-12-18T02:52:02.328Z,-6.10
2022-12-18T02:53:02.331Z,-6.06
2022-12-18T02:54:02.359Z,-5.99
2022-12-18T02:55:02.294Z,-5.92
2022-12-18T02:56:02.273Z,-5.92
2022-12-18T02:57:02.325Z,-5.91
2022-12-18T02:58:02.256Z,-5.90
2022-12-18T02:59:02.254Z,-5.88
2022-12-18T03:00:02.321Z,-5.90
2022-12-18T03:01:02.392Z,-5.91
2022-12-18T03:02:02.463Z,-5.91
2022-12-18T03:03:02.362Z,-5.92
2022-12-18T03:04:02.224Z,-5.87
2022-12-18T03:05:02.234Z,-5.88
2022-12-18T03:06:02.199Z,-5.91
2022-12-18T03:07:02.216Z,-5.91
2022-12-18T03:08:02.212Z,-5.95
2022-12-18T03:09:02.167Z,-5.95
2022-12-18T03:10:02.155Z,-5.99
2022-12-18T03:11:02.120Z,-6.05
2022-12-18T03:12:02.101Z,-6.09
2022-12-18T03:13:03.039Z,-6.10
2022-12-18T03:14:02.089Z,-6.16
2022-12-18T03:15:02.103Z,-6.19
2022-12-18T03:16:02.087Z,-6.21
2022-12-18T03:17:02.188Z,-6.24
2022-12-18T03:18:02.070Z,-6.24
2022-12-18T03:19:02.053Z,-6.24
2022-12-18T03:20:02.054Z,-6.21
2022-12-18T03:21:08.529Z,-6.19
2022-12-18T03:22:02.076Z,-6.13
2022-12-18T03:23:02.022Z,-6.08
2022-12-18T03:24:01.979Z,-6.05
2022-12-18T03:25:01.994Z,-6.03
2022-12-18T03:26:07.243Z,-6.02
2022-12-18T03:27:01.988Z,-6.02
2022-12-18T03:28:01.961Z,-6.03
2022-12-18T03:29:01.966Z,-6.03
2022-12-18T03:30:01.945Z,-6.03
2022-12-18T03:31:01.992Z,-6.03
2022-12-18T03:32:01.944Z,-6.03
2022-12-18T03:33:01.907Z,-6.05
2022-12-18T03:34:01.896Z,-6.05
2022-12-18T03:35:01.890Z,-6.08
2022-12-18T03:36:01.876Z,-6.10
2022-12-18T03:37:01.891Z,-6.14
2022-12-18T03:38:01.881Z,-6.16
2022-12-18T03:39:01.852Z,-6.16
2022-12-18T03:40:01.837Z,-6.13
2022-12-18T03:41:01.854Z,-6.09
2022-12-18T03:42:01.814Z,-6.10
2022-12-18T03:43:01.816Z,-6.06
2022-12-18T03:44:01.836Z,-6.06
2022-12-18T03:45:01.812Z,-6.05
2022-12-18T03:46:01.830Z,-6.05
2022-12-18T03:47:01.756Z,-6.08
2022-12-18T03:48:01.751Z,-6.10
2022-12-18T03:49:01.762Z,-6.13
2022-12-18T03:50:01.736Z,-6.10
2022-12-18T03:51:01.722Z,-6.13
2022-12-18T03:52:01.707Z,-6.06
2022-12-18T03:53:01.722Z,-6.03
2022-12-18T03:54:01.696Z,-6.02
2022-12-18T03:55:01.700Z,-5.98
2022-12-18T03:56:01.678Z,-5.98
2022-12-18T03:57:01.679Z,-5.96
2022-12-18T03:58:01.649Z,-5.95
2022-12-18T03:59:01.627Z,-5.90
2022-12-18T04:00:01.721Z,-5.90
2022-12-18T04:01:01.618Z,-5.92
2022-12-18T04:02:01.808Z,-5.95
2022-12-18T04:03:01.570Z,-5.99
2022-12-18T04:04:01.663Z,-6.00
2022-12-18T04:05:01.601Z,-6.05
2022-12-18T04:06:01.542Z,-6.08
2022-12-18T04:07:01.558Z,-6.10
2022-12-18T04:08:01.541Z,-6.14
2022-12-18T04:09:01.544Z,-6.14
2022-12-18T04:10:01.499Z,-6.16
2022-12-18T04:11:08.004Z,-6.17
2022-12-18T04:12:01.502Z,-6.19
2022-12-18T04:13:01.472Z,-6.17
2022-12-18T04:14:05.905Z,-6.16
2022-12-18T04:15:01.465Z,-6.17
2022-12-18T04:16:01.463Z,-6.14
2022-12-18T04:17:01.445Z,-6.14
2022-12-18T04:18:01.429Z,-6.10
2022-12-18T04:19:01.433Z,-6.06
2022-12-18T04:20:01.417Z,-6.06
2022-12-18T04:21:01.378Z,-6.08
2022-12-18T04:22:01.375Z,-6.10
2022-12-18T04:23:01.366Z,-6.14
2022-12-18T04:24:01.420Z,-6.14
2022-12-18T04:25:01.362Z,-6.16
2022-12-18T04:26:01.368Z,-6.19
2022-12-18T04:27:01.337Z,-6.21
2022-12-18T04:28:01.317Z,-6.26
2022-12-18T04:29:01.297Z,-6.29
2022-12-18T04:30:01.319Z,-6.29
2022-12-18T04:31:01.367Z,-6.29
2022-12-18T04:32:01.289Z,-6.32
2022-12-18T04:33:01.254Z,-6.35
2022-12-18T04:34:01.278Z,-6.34
2022-12-18T04:35:01.249Z,-6.31
2022-12-18T04:36:01.267Z,-6.29
2022-12-18T04:37:01.208Z,-6.27
2022-12-18T04:38:01.229Z,-6.24
2022-12-18T04:39:01.187Z,-6.24
2022-12-18T04:40:01.189Z,-6.20
2022-12-18T04:41:01.193Z,-6.19
2022-12-18T04:42:01.176Z,-6.19
2022-12-18T04:43:01.216Z,-6.17
2022-12-18T04:44:01.168Z,-6.16
2022-12-18T04:45:01.163Z,-6.10
2022-12-18T04:46:01.196Z,-6.13
2022-12-18T04:47:01.146Z,-6.14
2022-12-18T04:48:01.113Z,-6.21
2022-12-18T04:49:01.100Z,-6.29
2022-12-18T04:50:01.099Z,-6.34
2022-12-18T04:51:07.643Z,-6.38
2022-12-18T04:52:01.103Z,-6.42
2022-12-18T04:53:01.110Z,-6.47
2022-12-18T04:54:02.025Z,-6.50
2022-12-18T04:55:01.102Z,-6.53
2022-12-18T04:56:01.020Z,-6.41
2022-12-18T04:57:01.008Z,-6.37
2022-12-18T04:58:00.993Z,-6.35
2022-12-18T04:59:00.989Z,-6.35
2022-12-18T05:00:00.987Z,-6.34
2022-12-18T05:01:01.001Z,-6.37
2022-12-18T05:02:01.114Z,-6.38
2022-12-18T05:03:01.001Z,-6.39
2022-12-18T05:04:00.991Z,-6.41
2022-12-18T05:05:00.947Z,-6.44
2022-12-18T05:06:00.938Z,-6.45
2022-12-18T05:07:00.908Z,-6.47
2022-12-18T05:08:00.886Z,-6.52
2022-12-18T05:09:00.904Z,-6.60
2022-12-18T05:10:00.890Z,-6.63
2022-12-18T05:11:00.869Z,-6.67
2022-12-18T05:12:00.842Z,-6.71
2022-12-18T05:13:00.845Z,-6.75
2022-12-18T05:14:00.828Z,-6.77
2022-12-18T05:15:00.830Z,-6.77
2022-12-18T05:16:00.905Z,-6.81
2022-12-18T05:17:01.356Z,-6.84
2022-12-18T05:18:00.804Z,-6.85
2022-12-18T05:19:00.788Z,-6.87
2022-12-18T05:20:00.780Z,-6.89
2022-12-18T05:21:00.771Z,-6.93
2022-12-18T05:22:00.784Z,-6.93
2022-12-18T05:23:00.755Z,-6.93
2022-12-18T05:24:00.754Z,-6.90
2022-12-18T05:25:00.710Z,-6.85
2022-12-18T05:26:00.762Z,-6.79
2022-12-18T05:27:00.691Z,-6.75
2022-12-18T05:28:00.694Z,-6.74
2022-12-18T05:29:00.696Z,-6.66
2022-12-18T05:30:00.666Z,-6.64
2022-12-18T05:31:07.297Z,-6.61
2022-12-18T05:32:00.671Z,-6.55
2022-12-18T05:33:00.646Z,-6.47
2022-12-18T05:34:00.625Z,-6.44
2022-12-18T05:35:00.609Z,-6.38
2022-12-18T05:36:00.610Z,-6.27
2022-12-18T05:37:00.618Z,-6.21
2022-12-18T05:38:00.583Z,-6.23
2022-12-18T05:39:00.587Z,-6.21
2022-12-18T05:40:00.582Z,-6.20
2022-12-18T05:41:00.549Z,-6.20
2022-12-18T05:42:00.564Z,-6.21
2022-12-18T05:43:00.527Z,-6.16
2022-12-18T05:44:00.543Z,-6.13
2022-12-18T05:45:00.500Z,-6.16
2022-12-18T05:46:00.522Z,-6.16
2022-12-18T05:47:00.606Z,-6.17
2022-12-18T05:48:00.500Z,-6.14
2022-12-18T05:49:00.461Z,-6.16
2022-12-18T05:50:00.503Z,-6.10
2022-12-18T05:51:06.958Z,-6.09
2022-12-18T05:52:00.438Z,-6.09
2022-12-18T05:53:00.438Z,-6.09
2022-12-18T05:54:00.419Z,-6.09
2022-12-18T05:55:00.430Z,-6.08
2022-12-18T05:56:00.420Z,-6.05
2022-12-18T05:57:00.429Z,-6.03
2022-12-18T05:58:00.396Z,-6.03
2022-12-18T05:59:00.375Z,-6.03
2022-12-18T06:00:00.391Z,-6.05
2022-12-18T06:01:00.338Z,-6.06
2022-12-18T06:02:00.503Z,-6.03
2022-12-18T06:03:00.473Z,-5.95
2022-12-18T06:04:00.350Z,-5.87
2022-12-18T06:05:00.313Z,-5.84
2022-12-18T06:06:00.323Z,-5.81
2022-12-18T06:07:00.273Z,-5.81
2022-12-18T06:08:00.271Z,-5.87
2022-12-18T06:09:00.271Z,-5.85
2022-12-18T06:10:00.302Z,-5.87
2022-12-18T06:11:06.759Z,-5.84
2022-12-18T06:12:00.267Z,-5.81
2022-12-18T06:13:00.237Z,-5.81
2022-12-18T06:14:00.403Z,-5.82
2022-12-18T06:15:00.213Z,-5.85
2022-12-18T06:16:00.237Z,-5.90
2022-12-18T06:17:00.173Z,-5.92
2022-12-18T06:18:00.192Z,-5.96
2022-12-18T06:19:00.176Z,-5.96
2022-12-18T06:20:00.168Z,-5.96
2022-12-18T06:21:00.144Z,-6.00
2022-12-18T06:22:00.131Z,-6.02
2022-12-18T06:23:00.159Z,-6.05
2022-12-18T06:24:00.112Z,-6.05
2022-12-18T06:25:00.112Z,-6.08
2022-12-18T06:26:00.094Z,-6.06
2022-12-18T06:27:00.132Z,-6.06
2022-12-18T06:28:00.093Z,-6.08
2022-12-18T06:29:00.115Z,-6.09
2022-12-18T06:30:00.064Z,-6.10
2022-12-18T06:31:00.050Z,-6.06
2022-12-18T06:32:00.049Z,-6.05
2022-12-18T06:33:00.021Z,-6.03
2022-12-18T06:34:00.026Z,-6.02
2022-12-18T06:35:00.020Z,-6.05
2022-12-18T06:36:01.173Z,-6.09
2022-12-18T06:36:59.967Z,-6.13
2022-12-18T06:37:59.957Z,-6.09
2022-12-18T06:38:59.947Z,-6.06
2022-12-18T06:39:59.947Z,-6.05
2022-12-18T06:40:59.935Z,-6.05
2022-12-18T06:41:59.942Z,-6.03
2022-12-18T06:42:59.916Z,-6.03
2022-12-18T06:44:00.300Z,-6.05
2022-12-18T06:44:59.897Z,-6.05
2022-12-18T06:45:59.955Z,-6.03
2022-12-18T06:46:59.854Z,-6.05
2022-12-18T06:47:59.857Z,-6.05
2022-12-18T06:48:59.857Z,-6.08
2022-12-18T06:49:59.852Z,-6.10
2022-12-18T06:50:59.814Z,-6.13
2022-12-18T06:51:59.833Z,-6.10
2022-12-18T06:52:59.819Z,-6.09
2022-12-18T06:53:59.809Z,-6.06
2022-12-18T06:54:59.781Z,-6.05
2022-12-18T06:56:01.210Z,-6.03
2022-12-18T06:56:59.774Z,-6.05
2022-12-18T06:57:59.776Z,-6.09
2022-12-18T06:58:59.789Z,-6.09
2022-12-18T06:59:59.729Z,-6.06
2022-12-18T07:00:59.813Z,-6.00
2022-12-18T07:01:59.835Z,-5.92
2022-12-18T07:02:59.706Z,-5.90
2022-12-18T07:03:59.699Z,-5.85
2022-12-18T07:04:59.692Z,-5.84
2022-12-18T07:05:59.699Z,-5.81
2022-12-18T07:06:59.670Z,-5.81
2022-12-18T07:07:59.655Z,-5.77
2022-12-18T07:08:59.629Z,-5.69
2022-12-18T07:09:59.645Z,-5.63
2022-12-18T07:10:59.631Z,-5.60
2022-12-18T07:11:59.616Z,-5.55
2022-12-18T07:12:59.596Z,-5.52
2022-12-18T07:13:59.604Z,-5.46
2022-12-18T07:14:59.569Z,-5.42
2022-12-18T07:15:59.586Z,-5.34
2022-12-18T07:16:59.639Z,-5.34
2022-12-18T07:17:59.554Z,-5.38
2022-12-18T07:18:59.531Z,-5.39
2022-12-18T07:19:59.524Z,-5.42
2022-12-18T07:20:59.516Z,-5.48
2022-12-18T07:21:59.514Z,-5.49
2022-12-18T07:22:59.509Z,-5.52
2022-12-18T07:23:59.501Z,-5.55
2022-12-18T07:24:59.485Z,-5.57
2022-12-18T07:25:59.469Z,-5.60
2022-12-18T07:26:59.454Z,-5.62
2022-12-18T07:27:59.446Z,-5.64
2022-12-18T07:28:59.451Z,-5.64
2022-12-18T07:29:59.452Z,-5.66
2022-12-18T07:30:59.435Z,-5.63
2022-12-18T07:31:59.455Z,-5.60
2022-12-18T07:32:59.384Z,-5.62
2022-12-18T07:33:59.384Z,-5.62
2022-12-18T07:34:59.383Z,-5.62
2022-12-18T07:35:59.366Z,-5.62
2022-12-18T07:36:59.368Z,-5.60
2022-12-18T07:37:59.329Z,-5.62
2022-12-18T07:38:59.346Z,-5.64
2022-12-18T07:39:59.301Z,-5.64
2022-12-18T07:40:59.298Z,-5.63
2022-12-18T07:41:59.290Z,-5.59
2022-12-18T07:42:59.298Z,-5.60
2022-12-18T07:43:59.289Z,-5.59
2022-12-18T07:44:59.277Z,-5.52
2022-12-18T07:45:59.378Z,-5.51
2022-12-18T07:46:59.250Z,-5.51
2022-12-18T07:47:59.238Z,-5.48
2022-12-18T07:48:59.231Z,-5.49
2022-12-18T07:49:59.226Z,-5.51
2022-12-18T07:50:59.209Z,-5.52
2022-12-18T07:51:59.213Z,-5.52
2022-12-18T07:52:59.191Z,-5.52
2022-12-18T07:53:59.191Z,-5.52
2022-12-18T07:54:59.160Z,-5.53
2022-12-18T07:56:25.303Z,-5.53
2022-12-18T07:56:59.141Z,-5.55
2022-12-18T07:58:01.160Z,-5.55
2022-12-18T07:58:59.146Z,-5.57
2022-12-18T07:59:59.096Z,-5.60
2022-12-18T08:00:59.166Z,-5.60
2022-12-18T08:01:59.229Z,-5.55
2022-12-18T08:02:59.230Z,-5.51
2022-12-18T08:03:59.075Z,-5.48
2022-12-18T08:04:59.061Z,-5.45
2022-12-18T08:05:59.055Z,-5.43
2022-12-18T08:06:59.045Z,-5.42
2022-12-18T08:07:59.027Z,-5.42
2022-12-18T08:08:59.039Z,-5.35
2022-12-18T08:09:59.015Z,-5.33
2022-12-18T08:10:58.980Z,-5.25
2022-12-18T08:11:58.984Z,-5.23
2022-12-18T08:13:04.633Z,-5.23
2022-12-18T08:13:58.974Z,-5.11
2022-12-18T08:14:58.959Z,-4.84
2022-12-18T08:15:58.944Z,-4.56
2022-12-18T08:16:58.943Z,-4.34
2022-12-18T08:17:58.924Z,-4.27
2022-12-18T08:18:58.932Z,-4.30
2022-12-18T08:19:58.899Z,-4.16
2022-12-18T08:20:58.891Z,-3.81
2022-12-18T08:21:58.859Z,-3.51
2022-12-18T08:22:58.859Z,-3.59
2022-12-18T08:23:58.865Z,-3.92
2022-12-18T08:24:58.860Z,-3.99
2022-12-18T08:25:58.838Z,-3.99
2022-12-18T08:27:27.751Z,-3.84
2022-12-18T08:27:58.801Z,-3.83
2022-12-18T08:28:58.801Z,-3.74
2022-12-18T08:29:58.778Z,-3.58
2022-12-18T08:31:05.441Z,-3.52
2022-12-18T08:31:58.852Z,-3.31
2022-12-18T08:32:58.800Z,-3.25
2022-12-18T08:33:58.772Z,-3.23
2022-12-18T08:34:58.733Z,-3.26
2022-12-18T08:35:58.717Z,-3.15
2022-12-18T08:36:58.729Z,-3.10
2022-12-18T08:37:58.731Z,-2.95
2022-12-18T08:38:58.694Z,-2.90
2022-12-18T08:39:58.690Z,-2.74
2022-12-18T08:40:58.675Z,-2.56
2022-12-18T08:41:58.678Z,-2.55
2022-12-18T08:42:58.669Z,-2.64
2022-12-18T08:43:58.629Z,-2.59
2022-12-18T08:44:58.632Z,-2.38
2022-12-18T08:45:58.636Z,-2.28
2022-12-18T08:46:58.619Z,-2.18
2022-12-18T08:47:58.611Z,-2.01
2022-12-18T08:48:58.596Z,-1.90
2022-12-18T08:49:58.597Z,-1.98
2022-12-18T08:50:58.582Z,-2.13
2022-12-18T08:51:58.562Z,-2.10
2022-12-18T08:52:58.552Z,-1.92
2022-12-18T08:53:58.542Z,-1.59
2022-12-18T08:54:58.527Z,-1.23
2022-12-18T08:55:58.520Z,-1.08
2022-12-18T08:56:58.519Z,-1.00
2022-12-18T08:57:58.514Z,-0.80
2022-12-18T08:58:58.501Z,-0.56
2022-12-18T08:59:58.459Z,-0.55
2022-12-18T09:00:58.531Z,-0.67
2022-12-18T09:01:58.604Z,-0.73
2022-12-18T09:02:58.594Z,-0.95
2022-12-18T09:03:58.425Z,-1.11
2022-12-18T09:04:58.409Z,-1.00
2022-12-18T09:05:58.410Z,-0.81
2022-12-18T09:06:58.388Z,-0.58
2022-12-18T09:07:58.407Z,-0.50
2022-12-18T09:08:58.359Z,-0.41
2022-12-18T09:09:58.379Z,-0.26
2022-12-18T09:11:04.903Z,-0.13
2022-12-18T09:11:58.368Z,0.04
2022-12-18T09:12:58.339Z,0.15
2022-12-18T09:13:58.346Z,0.25
2022-12-18T09:14:58.303Z,0.07
2022-12-18T09:15:58.293Z,-0.20
2022-12-18T09:16:58.458Z,-0.27
2022-12-18T09:17:58.291Z,-0.23
2022-12-18T09:18:58.284Z,-0.20
2022-12-18T09:19:58.273Z,-0.24
2022-12-18T09:20:58.254Z,-0.24
2022-12-18T09:21:58.234Z,-0.14
2022-12-18T09:22:58.212Z,-0.05
2022-12-18T09:23:58.217Z,-0.05
2022-12-18T09:24:58.192Z,-0.05
2022-12-18T09:25:58.203Z,-0.12
2022-12-18T09:26:58.307Z,-0.26
2022-12-18T09:27:58.181Z,-0.21
2022-12-18T09:28:58.175Z,-0.01
2022-12-18T09:29:58.142Z,0.16
2022-12-18T09:30:58.166Z,0.35
2022-12-18T09:31:58.143Z,0.53
2022-12-18T09:32:58.193Z,0.72
2022-12-18T09:33:58.137Z,1.02
2022-12-18T09:34:58.088Z,1.20
2022-12-18T09:35:58.077Z,1.54
2022-12-18T09:36:58.082Z,2.00
2022-12-18T09:37:58.083Z,2.19
2022-12-18T09:38:58.068Z,2.50
2022-12-18T09:39:58.042Z,2.68
2022-12-18T09:41:04.581Z,2.81
2022-12-18T09:41:58.054Z,3.05
2022-12-18T09:42:58.022Z,3.17
2022-12-18T09:43:57.997Z,3.20
2022-12-18T09:44:58.019Z,3.67
2022-12-18T09:45:58.145Z,3.68
2022-12-18T09:46:57.978Z,3.50
2022-12-18T09:47:57.974Z,3.31
2022-12-18T09:48:57.954Z,3.26
2022-12-18T09:49:57.933Z,3.17
2022-12-18T09:50:57.919Z,2.77
2022-12-18T09:51:57.936Z,2.55
2022-12-18T09:52:57.936Z,2.22
2022-12-18T09:53:57.914Z,2.23
2022-12-18T09:54:57.890Z,2.30
2022-12-18T09:55:57.863Z,2.48
2022-12-18T09:56:57.856Z,2.48
2022-12-18T09:57:57.862Z,2.69
2022-12-18T09:58:57.861Z,2.71
2022-12-18T09:59:57.834Z,2.86
2022-12-18T10:00:57.829Z,2.98
2022-12-18T10:01:57.887Z,3.08
2022-12-18T10:02:57.980Z,3.07
2022-12-18T10:03:57.851Z,2.89
2022-12-18T10:04:57.780Z,2.76
2022-12-18T10:05:57.771Z,2.44
2022-12-18T10:06:57.733Z,2.62
2022-12-18T10:07:57.746Z,2.68
2022-12-18T10:08:57.733Z,2.65
2022-12-18T10:09:57.721Z,2.62
2022-12-18T10:10:57.703Z,2.63
2022-12-18T10:11:57.677Z,2.62
2022-12-18T10:13:04.081Z,2.66
2022-12-18T10:13:57.658Z,2.77
2022-12-18T10:14:57.651Z,2.61
2022-12-18T10:15:57.719Z,2.47
2022-12-18T10:16:57.622Z,2.50
2022-12-18T10:17:57.631Z,2.61
2022-12-18T10:18:57.620Z,2.66
2022-12-18T10:19:57.625Z,2.76
2022-12-18T10:20:57.578Z,2.83
2022-12-18T10:21:57.588Z,2.81
2022-12-18T10:22:57.568Z,2.84
2022-12-18T10:23:57.546Z,2.66
2022-12-18T10:24:57.531Z,2.66
2022-12-18T10:25:57.530Z,2.81
2022-12-18T10:26:57.507Z,2.89
2022-12-18T10:27:57.506Z,3.04
2022-12-18T10:29:02.083Z,3.30
2022-12-18T10:29:57.502Z,3.52
2022-12-18T10:30:57.487Z,3.44
2022-12-18T10:31:57.492Z,3.54
2022-12-18T10:32:57.457Z,3.74
2022-12-18T10:33:57.447Z,3.75
2022-12-18T10:35:00.553Z,3.88
2022-12-18T10:35:57.432Z,3.95
2022-12-18T10:36:57.397Z,4.06
2022-12-18T10:37:57.389Z,4.16
2022-12-18T10:38:57.394Z,4.06
2022-12-18T10:39:57.405Z,4.17
2022-12-18T10:40:57.352Z,4.26
2022-12-18T10:41:57.347Z,4.04
2022-12-18T10:42:57.352Z,4.00
2022-12-18T10:43:57.312Z,3.64
2022-12-18T10:44:57.325Z,3.81
2022-12-18T10:45:57.381Z,3.64
2022-12-18T10:46:57.415Z,3.60
2022-12-18T10:47:57.268Z,3.96
2022-12-18T10:48:57.263Z,4.24
2022-12-18T10:49:57.299Z,4.25
2022-12-18T10:51:12.350Z,4.31
2022-12-18T10:51:57.241Z,4.00
2022-12-18T10:52:57.222Z,3.68
2022-12-18T10:53:57.201Z,3.68
2022-12-18T10:54:57.227Z,3.56
2022-12-18T10:55:57.186Z,3.53
2022-12-18T10:56:57.201Z,3.50
2022-12-18T10:57:57.157Z,3.52
2022-12-18T10:58:57.184Z,3.57
2022-12-18T10:59:57.152Z,3.53
2022-12-18T11:00:57.173Z,3.63
2022-12-18T11:01:57.323Z,3.52
2022-12-18T11:02:57.338Z,3.50
2022-12-18T11:04:01.846Z,3.44
2022-12-18T11:04:57.093Z,3.31
2022-12-18T11:05:57.179Z,2.97
2022-12-18T11:06:57.085Z,2.76
2022-12-18T11:07:57.075Z,3.01
2022-12-18T11:08:57.078Z,3.01
2022-12-18T11:09:57.084Z,3.16
2022-12-18T11:10:57.025Z,3.01
2022-12-18T11:11:57.020Z,2.97
2022-12-18T11:12:57.000Z,2.89
2022-12-18T11:13:56.998Z,3.05
2022-12-18T11:14:56.995Z,3.20
2022-12-18T11:15:56.975Z,3.26
2022-12-18T11:17:24.282Z,3.25
2022-12-18T11:17:56.963Z,3.57
2022-12-18T11:18:56.931Z,3.72
2022-12-18T11:19:56.959Z,3.57
2022-12-18T11:20:58.775Z,3.01
2022-12-18T11:21:56.920Z,2.95
2022-12-18T11:22:56.902Z,2.89
2022-12-18T11:23:56.892Z,2.99
2022-12-18T11:25:30.051Z,2.95
2022-12-18T11:25:56.904Z,2.95
2022-12-18T11:26:59.865Z,2.89
2022-12-18T11:27:56.836Z,2.76
2022-12-18T11:28:56.850Z,2.62
2022-12-18T11:29:56.831Z,2.74
2022-12-18T11:30:56.902Z,2.53
2022-12-18T11:31:56.793Z,2.62
2022-12-18T11:32:56.803Z,2.81
2022-12-18T11:34:26.987Z,2.80
2022-12-18T11:34:59.138Z,2.73
2022-12-18T11:35:56.782Z,2.68
2022-12-18T11:36:56.777Z,2.61
2022-12-18T11:37:56.765Z,2.66
2022-12-18T11:38:56.705Z,2.48
2022-12-18T11:39:56.698Z,2.47
2022-12-18T11:40:56.828Z,2.33
2022-12-18T11:41:56.681Z,2.33
2022-12-18T11:42:56.680Z,2.22
2022-12-18T11:43:56.674Z,2.12
2022-12-18T11:44:56.650Z,1.75
2022-12-18T11:45:56.663Z,1.63
2022-12-18T11:46:56.717Z,1.81
2022-12-18T11:47:56.636Z,2.00
2022-12-18T11:48:56.638Z,1.93
2022-12-18T11:49:56.603Z,1.77
2022-12-18T11:51:03.105Z,1.82
2022-12-18T11:51:56.585Z,1.82
2022-12-18T11:53:00.340Z,1.70
2022-12-18T11:53:56.559Z,1.71
2022-12-18T11:54:56.535Z,1.72
2022-12-18T11:55:56.540Z,1.82
2022-12-18T11:56:56.509Z,1.70
2022-12-18T11:57:56.535Z,1.65
2022-12-18T11:58:56.497Z,1.60
2022-12-18T11:59:56.473Z,1.42
2022-12-18T12:00:56.462Z,1.32
2022-12-18T12:01:56.584Z,1.43
2022-12-18T12:02:56.551Z,1.44
2022-12-18T12:03:56.524Z,1.32
2022-12-18T12:04:56.446Z,1.18
2022-12-18T12:05:56.450Z,0.98
2022-12-18T12:07:01.454Z,0.96
2022-12-18T12:07:56.466Z,0.92
2022-12-18T12:08:56.413Z,1.02
2022-12-18T12:09:56.363Z,0.99
2022-12-18T12:11:02.962Z,1.00
2022-12-18T12:11:56.355Z,0.96
2022-12-18T12:12:56.340Z,0.98
2022-12-18T12:13:56.356Z,0.95
2022-12-18T12:14:56.340Z,0.95
2022-12-18T12:15:56.412Z,0.82
2022-12-18T12:16:56.320Z,0.71
2022-12-18T12:17:56.320Z,0.62
2022-12-18T12:18:56.274Z,0.59
2022-12-18T12:19:56.278Z,0.64
2022-12-18T12:20:56.257Z,0.62
2022-12-18T12:21:56.242Z,0.63
2022-12-18T12:22:56.248Z,0.80
2022-12-18T12:23:56.215Z,0.82
2022-12-18T12:24:56.188Z,0.75
2022-12-18T12:25:56.219Z,0.59
2022-12-18T12:26:56.185Z,0.56
2022-12-18T12:27:56.200Z,0.68
2022-12-18T12:28:56.864Z,0.70
2022-12-18T12:29:56.142Z,0.64
2022-12-18T12:30:56.137Z,0.70
2022-12-18T12:31:56.180Z,0.64
2022-12-18T12:32:56.122Z,0.60
2022-12-18T12:33:56.108Z,0.57
2022-12-18T12:35:00.283Z,0.62
2022-12-18T12:35:56.090Z,0.62
2022-12-18T12:36:56.063Z,0.64
2022-12-18T12:37:56.067Z,0.60
2022-12-18T12:38:56.097Z,0.48
2022-12-18T12:39:56.035Z,0.52
2022-12-18T12:41:02.398Z,0.49
2022-12-18T12:41:56.018Z,0.44
2022-12-18T12:42:56.004Z,0.53
2022-12-18T12:43:56.055Z,0.53
2022-12-18T12:44:57.041Z,0.53
2022-12-18T12:45:56.009Z,0.52
2022-12-18T12:46:55.975Z,0.56
2022-12-18T12:47:56.198Z,0.51
2022-12-18T12:48:55.949Z,0.57
2022-12-18T12:49:56.096Z,0.64
2022-12-18T12:50:55.905Z,0.70
2022-12-18T12:51:55.867Z,0.74
2022-12-18T12:52:55.886Z,0.75
2022-12-18T12:53:55.878Z,0.80
2022-12-18T12:54:55.846Z,0.77
2022-12-18T12:55:55.828Z,0.63
2022-12-18T12:56:55.850Z,0.56
2022-12-18T12:57:55.807Z,0.51
2022-12-18T12:58:55.808Z,0.62
2022-12-18T12:59:55.781Z,0.63